Archival Weather

Chicago O'Hare International

Chicago, Illinois (KORD)

Report from: Wednesday, February 16, 2022 10:51 AM CST
Current time: Saturday, February 4, 2023 10:26 PM CST

Current weather
Weather history
Weather forecast

Temperature9.4°C (48.9°F)
Wind chill5.5°C (41.8°F)
Dew point3.9°C (39.0°F)
Winds 19 kts (9.8 m/s, 21.9 mph) South-Southwest (200°)
Wind gusts 29 kts (14.9 m/s, 33.4 mph)
Peak wind 37 kts (19 m/s, 42.6 mph) South-Southwest (200°) at 09:54
Visibility10 mi. (16.1 km)
Clouds Ceiling: Broken clouds 4,500 ft. (1,372 m)
Overcast 5,500 ft. (1,676 m)
Altimeter29.80 in.Hg (1009 mB)
Relative humidity69 %
Density altitude-412 ft. (-125 m)
Sea-level pressure101.0 kPa (1010 mB, 29.81 in.Hg)
Remarks Automated weather observing station with precipitation discriminator
Flight conditions Visual Meteorological Conditions
Raw dataKORD 161651Z 20019G29KT 10SM BKN045 OVC055 09/04 A2980 RMK AO2 PK WND 20037/1554 SLP095 T00940039
An unhandled exception has occurred. See browser dev tools for details. Reload 🗙